Time;durP1;ratioP1;P1;durP2;ratioP2;P2;SDS_P1;SDS_P2;PMS_P1;PMS_P2;Temp;Humidity;BMP_temperature;BMP_pressure;BME280_temperature;BME280_humidity;BME280_pressure;Samples;Min_cycle;Max_cycle;Signal;HPM_P1;HPM_P2
2022/09/22 00:02:47;;;;;;;4.90;4.40;;;7.00;99.90;;;;;;4989617;28;20581;-92
2022/09/22 00:05:23;;;;;;;5.03;4.53;;;7.00;99.90;;;;;;4992776;28;20486;-92
2022/09/22 00:07:56;;;;;;;4.70;4.23;;;7.00;99.90;;;;;;4989926;28;20459;-91
2022/09/22 00:10:24;;;;;;;4.70;4.30;;;7.10;99.90;;;;;;4989070;28;20449;-91
2022/09/22 00:12:53;;;;;;;4.77;4.37;;;7.10;99.90;;;;;;4991138;28;20435;-92
2022/09/22 00:15:22;;;;;;;5.40;4.23;;;7.20;99.90;;;;;;5011249;28;20225;-91
2022/09/22 00:17:49;;;;;;;4.70;4.30;;;7.20;99.90;;;;;;5001622;28;20430;-92
2022/09/22 00:20:16;;;;;;;5.30;4.80;;;7.20;99.90;;;;;;5001721;28;20451;-91
2022/09/22 00:22:41;;;;;;;4.80;4.40;;;7.10;99.90;;;;;;5004675;28;20576;-91
2022/09/22 00:25:10;;;;;;;4.80;4.40;;;7.20;99.90;;;;;;5000375;28;20455;-92
2022/09/22 00:28:13;;;;;;;;;;;;;;;;;;;;;
2022/09/22 00:30:41;;;;;;;6.30;5.37;;;7.30;99.90;;;;;;5008887;28;20983;-92
2022/09/22 00:33:12;;;;;;;5.20;4.67;;;7.30;99.90;;;;;;4992334;28;20443;-92
2022/09/22 00:36:20;;;;;;;5.23;4.73;;;7.30;99.90;;;;;;4993036;28;20477;-92
2022/09/22 00:39:16;;;;;;;5.33;4.60;;;7.20;99.90;;;;;;4981381;28;20874;-92
2022/09/22 00:41:51;;;;;;;6.13;5.40;;;7.10;99.90;;;;;;4979108;28;20658;-91
2022/09/22 00:44:29;;;;;;;5.60;5.10;;;7.10;99.90;;;;;;4988587;28;20960;-92
2022/09/22 00:47:20;;;;;;;5.77;5.17;;;6.90;99.90;;;;;;5010711;28;20777;-92
2022/09/22 00:50:14;;;;;;;5.57;5.00;;;6.90;99.90;;;;;;5002961;28;20446;-91
2022/09/22 00:52:54;;;;;;;6.33;5.60;;;6.90;99.90;;;;;;5005637;28;20475;-93
2022/09/22 00:56:06;;;;;;;4.93;4.53;;;6.80;99.90;;;;;;4985877;28;20604;-91
2022/09/22 00:58:55;;;;;;;5.60;4.37;;;6.70;99.90;;;;;;5001744;28;20446;-91
2022/09/22 01:01:29;;;;;;;4.97;4.50;;;6.60;99.90;;;;;;4990933;28;20853;-91
2022/09/22 01:04:28;;;;;;;5.40;4.83;;;6.60;99.90;;;;;;5009854;28;21033;-92
2022/09/22 01:06:58;;;;;;;5.07;4.43;;;6.60;99.90;;;;;;4994285;28;20526;-91
2022/09/22 01:09:27;;;;;;;5.43;4.97;;;6.60;99.90;;;;;;5002373;28;20463;-92
2022/09/22 01:11:53;;;;;;;5.47;5.00;;;6.60;99.90;;;;;;4984287;28;21017;-91
2022/09/22 01:14:50;;;;;;;;;;;;;;;;;;;;;
2022/09/22 01:17:52;;;;;;;5.03;4.53;;;6.40;99.90;;;;;;5013264;28;20452;-92
2022/09/22 01:20:48;;;;;;;4.30;3.90;;;6.40;99.90;;;;;;4959769;28;20445;-93
2022/09/22 01:23:46;;;;;;;5.43;4.93;;;6.30;99.90;;;;;;4997527;28;20483;-93
2022/09/22 01:26:40;;;;;;;4.50;4.10;;;6.10;99.90;;;;;;5000599;28;20981;-93
2022/09/22 01:29:12;;;;;;;5.23;4.50;;;6.10;99.90;;;;;;5006652;28;20449;-93
2022/09/22 01:31:44;;;;;;;4.63;4.23;;;6.20;99.90;;;;;;5006926;28;20435;-92
2022/09/22 01:34:57;;;;;;;4.77;4.37;;;6.20;99.90;;;;;;4990416;28;20474;-91
2022/09/22 01:37:31;;;;;;;5.70;5.07;;;6.30;99.90;;;;;;4891542;29;20454;-90
2022/09/22 01:40:06;;;;;;;5.60;4.93;;;6.30;99.90;;;;;;4993837;28;20472;-89
2022/09/22 01:42:51;;;;;;;6.10;5.50;;;6.10;99.90;;;;;;5008806;28;20451;-90
2022/09/22 01:45:28;;;;;;;5.43;4.93;;;6.20;99.90;;;;;;5011799;28;20455;-91
2022/09/22 01:48:19;;;;;;;6.10;5.50;;;6.10;99.90;;;;;;5006618;28;20481;-92
2022/09/22 01:51:34;;;;;;;5.70;5.20;;;6.10;99.90;;;;;;4991318;28;20441;-93
2022/09/22 01:54:40;;;;;;;5.53;5.00;;;6.10;99.90;;;;;;4990671;28;20547;-93
2022/09/22 01:57:51;;;;;;;9.00;4.80;;;6.30;99.90;;;;;;5000100;28;20442;-91
2022/09/22 02:00:56;;;;;;;6.10;5.20;;;6.30;99.90;;;;;;4990992;28;21818;-92
2022/09/22 02:03:24;;;;;;;5.10;4.70;;;6.40;99.90;;;;;;4989577;28;20967;-90
2022/09/22 02:06:00;;;;;;;5.50;4.80;;;6.40;99.90;;;;;;4988064;28;20455;-92
2022/09/22 02:08:56;;;;;;;4.97;4.57;;;6.20;99.90;;;;;;4987545;28;21429;-93
2022/09/22 02:11:22;;;;;;;5.17;4.77;;;6.00;99.90;;;;;;4997697;28;21213;-91
2022/09/22 02:13:48;;;;;;;5.43;4.93;;;6.00;99.90;;;;;;4997050;28;20470;-92
2022/09/22 02:16:23;;;;;;;5.13;4.73;;;6.10;99.90;;;;;;4985450;28;20435;-92
2022/09/22 02:19:27;;;;;;;4.70;4.30;;;6.00;99.90;;;;;;5011929;28;20184;-93
2022/09/22 02:21:53;;;;;;;5.67;5.17;;;6.00;99.90;;;;;;4999189;28;20427;-93
2022/09/22 02:24:35;;;;;;;6.13;5.30;;;5.80;99.90;;;;;;4999610;28;20505;-92
2022/09/22 02:27:25;;;;;;;5.80;5.30;;;5.60;99.90;;;;;;4994654;28;20557;-93
2022/09/22 02:30:04;;;;;;;5.70;5.10;;;5.50;99.90;;;;;;4998670;28;20811;-93
2022/09/22 02:32:38;;;;;;;4.47;4.07;;;5.60;99.90;;;;;;4999120;28;20469;-93
2022/09/22 02:35:25;;;;;;;5.20;4.80;;;5.80;99.90;;;;;;4999880;28;20493;-93
2022/09/22 02:38:33;;;;;;;5.00;4.60;;;5.80;99.90;;;;;;5016767;28;20533;-92
2022/09/22 02:41:16;;;;;;;6.77;5.30;;;5.80;99.90;;;;;;5000394;28;20788;-94
2022/09/22 02:44:34;;;;;;;4.57;4.17;;;6.00;99.90;;;;;;4999695;28;20445;-93
2022/09/22 02:47:21;;;;;;;4.50;4.10;;;6.00;99.90;;;;;;5015723;28;20443;-93
2022/09/22 02:50:44;;;;;;;5.07;4.67;;;6.00;99.90;;;;;;4999600;28;20939;-92
2022/09/22 02:53:18;;;;;;;5.00;4.50;;;6.00;99.90;;;;;;5001511;28;20533;-93
2022/09/22 02:56:03;;;;;;;4.80;4.40;;;6.00;99.90;;;;;;5017103;28;20460;-94
2022/09/22 02:58:53;;;;;;;5.80;5.20;;;6.00;99.90;;;;;;4996426;28;21736;-94
2022/09/22 03:01:30;;;;;;;4.93;4.43;;;5.90;99.90;;;;;;5009758;28;20894;-93
2022/09/22 03:04:01;;;;;;;4.47;4.10;;;5.90;99.90;;;;;;5002262;28;20438;-92
2022/09/22 03:06:39;;;;;;;4.50;4.13;;;5.70;99.90;;;;;;4999488;28;20450;-92
2022/09/22 03:09:08;;;;;;;4.87;4.47;;;5.70;99.90;;;;;;5000396;28;20454;-92
2022/09/22 03:11:40;;;;;;;5.10;4.13;;;5.70;99.90;;;;;;5001115;28;20447;-92
2022/09/22 03:14:24;;;;;;;4.90;4.47;;;5.60;99.90;;;;;;4999148;28;20531;-91
2022/09/22 03:17:00;;;;;;;;;;;;;;;;;;;;;
2022/09/22 03:19:26;;;;;;;7.40;4.93;;;5.50;99.90;;;;;;5014834;28;20454;-91
2022/09/22 03:21:56;;;;;;;4.97;4.50;;;5.60;99.90;;;;;;5004117;28;20464;-92
2022/09/22 03:24:22;;;;;;;4.67;4.30;;;5.60;99.90;;;;;;5004119;28;20949;-92
2022/09/22 03:26:47;;;;;;;4.60;4.27;;;5.60;99.90;;;;;;5003542;28;20467;-93
2022/09/22 03:29:14;;;;;;;6.83;4.80;;;5.70;99.90;;;;;;5016991;28;20193;-93
2022/09/22 03:31:40;;;;;;;5.20;4.70;;;5.60;99.90;;;;;;4999626;28;20443;-92
2022/09/22 03:34:05;;;;;;;4.63;4.23;;;5.60;99.90;;;;;;4999240;28;20347;-93
2022/09/22 03:36:36;;;;;;;4.77;4.17;;;5.50;99.90;;;;;;5006956;28;20535;-93
2022/09/22 03:39:26;;;;;;;4.80;4.40;;;5.50;99.90;;;;;;5015916;28;20217;-92
2022/09/22 03:41:52;;;;;;;4.50;4.10;;;5.50;99.90;;;;;;4995052;28;20961;-92
2022/09/22 03:44:25;;;;;;;4.17;3.80;;;5.50;99.90;;;;;;5018065;28;20496;-93
2022/09/22 03:46:52;;;;;;;3.93;3.63;;;5.50;99.90;;;;;;5004034;28;20550;-92
2022/09/22 03:49:20;;;;;;;4.93;3.83;;;5.40;99.90;;;;;;5007845;28;20788;-92
2022/09/22 03:51:48;;;;;;;4.17;3.87;;;5.30;99.90;;;;;;5015576;28;21100;-91
2022/09/22 03:54:20;;;;;;;5.20;4.80;;;5.20;99.90;;;;;;5003045;28;20608;-91
2022/09/22 03:56:49;;;;;;;5.10;4.70;;;5.20;99.90;;;;;;5001787;28;20856;-91
2022/09/22 03:59:29;;;;;;;5.00;4.60;;;5.10;99.90;;;;;;5019054;28;20447;-91
2022/09/22 04:02:32;;;;;;;4.53;4.10;;;5.00;99.90;;;;;;4995760;28;20977;-91
2022/09/22 04:05:22;;;;;;;5.70;4.50;;;5.10;99.90;;;;;;5014190;28;20442;-92
2022/09/22 04:08:02;;;;;;;4.47;4.07;;;5.20;99.90;;;;;;5015705;28;20473;-92
2022/09/22 04:10:27;;;;;;;6.73;5.80;;;5.20;99.90;;;;;;5001810;28;20447;-91
2022/09/22 04:12:53;;;;;;;6.37;5.17;;;5.30;99.90;;;;;;4999983;28;20462;-91
2022/09/22 04:15:18;;;;;;;6.40;5.90;;;5.30;99.90;;;;;;4999309;28;20272;-91
2022/09/22 04:17:50;;;;;;;5.77;5.13;;;5.30;99.90;;;;;;5005120;28;20210;-90
2022/09/22 04:20:18;;;;;;;5.47;4.97;;;5.30;99.90;;;;;;4991663;28;21205;-92
2022/09/22 04:23:05;;;;;;;5.60;5.10;;;5.30;99.90;;;;;;5009230;28;20485;-86
2022/09/22 04:25:31;;;;;;;6.03;4.90;;;5.40;99.90;;;;;;4996706;28;20499;-87
2022/09/22 04:27:56;;;;;;;4.93;4.53;;;5.30;99.90;;;;;;4980722;28;20440;-88
2022/09/22 04:30:22;;;;;;;4.97;4.57;;;5.30;99.90;;;;;;4980392;28;20879;-87
2022/09/22 04:32:48;;;;;;;4.00;3.60;;;5.30;99.90;;;;;;5008455;28;20198;-91
2022/09/22 04:35:13;;;;;;;4.00;3.50;;;5.30;99.90;;;;;;4993109;28;20239;-92
2022/09/22 04:37:40;;;;;;;5.50;4.00;;;5.20;99.90;;;;;;5008645;28;20183;-92
2022/09/22 04:40:11;;;;;;;6.27;5.67;;;5.10;99.90;;;;;;5005924;28;20284;-89
2022/09/22 04:42:38;;;;;;;10.87;5.07;;;5.00;99.90;;;;;;4994368;28;20493;-91
2022/09/22 04:45:05;;;;;;;6.03;4.97;;;5.10;99.90;;;;;;4989537;28;20446;-91
2022/09/22 04:47:32;;;;;;;5.40;4.90;;;5.00;99.90;;;;;;4985820;28;20443;-91
2022/09/22 04:49:58;;;;;;;4.17;3.87;;;4.90;99.90;;;;;;4999500;28;20450;-91
2022/09/22 04:52:24;;;;;;;4.80;4.30;;;4.80;99.90;;;;;;5001311;28;20471;-90
2022/09/22 04:54:50;;;;;;;4.27;3.97;;;4.80;99.90;;;;;;4999922;28;20506;-90
2022/09/22 04:57:16;;;;;;;5.60;4.80;;;4.70;99.90;;;;;;5003122;28;21008;-92
2022/09/22 04:59:44;;;;;;;4.27;3.97;;;4.70;99.90;;;;;;4999116;28;20995;-92
2022/09/22 05:02:10;;;;;;;6.73;5.20;;;4.70;99.90;;;;;;5003831;28;20246;-91
2022/09/22 05:04:35;;;;;;;5.73;4.03;;;4.60;99.90;;;;;;5008558;28;20442;-91
2022/09/22 05:07:08;;;;;;;6.10;5.60;;;4.50;99.90;;;;;;4991267;28;20179;-91
2022/09/22 05:09:34;;;;;;;5.43;4.97;;;4.30;99.90;;;;;;4994283;28;20199;-91
2022/09/22 05:12:03;;;;;;;5.33;4.83;;;4.40;99.90;;;;;;4989052;28;20444;-91
2022/09/22 05:14:59;;;;;;;5.47;4.43;;;4.50;99.90;;;;;;4996568;28;20223;-91
2022/09/22 05:17:25;;;;;;;4.80;4.40;;;4.50;99.90;;;;;;5009759;28;20453;-91
2022/09/22 05:19:53;;;;;;;4.87;4.47;;;4.50;99.90;;;;;;4992443;28;20451;-90
2022/09/22 05:22:22;;;;;;;4.53;4.13;;;4.50;99.90;;;;;;5008391;28;20184;-91
2022/09/22 05:24:48;;;;;;;5.63;5.03;;;4.60;99.90;;;;;;4992252;28;21009;-91
2022/09/22 05:27:13;;;;;;;4.73;4.33;;;4.50;99.90;;;;;;4992174;28;20455;-91
2022/09/22 05:29:39;;;;;;;5.27;4.87;;;4.60;99.90;;;;;;4991585;28;20593;-90
2022/09/22 05:32:05;;;;;;;4.97;4.00;;;4.70;99.90;;;;;;4993282;28;21031;-89
2022/09/22 05:34:49;;;;;;;5.60;4.87;;;4.70;99.90;;;;;;4988827;28;20246;-91
2022/09/22 05:37:14;;;;;;;8.13;5.23;;;4.80;99.90;;;;;;4988552;28;20722;-90
2022/09/22 05:39:43;;;;;;;4.70;4.30;;;4.70;99.90;;;;;;5003458;28;20956;-90
2022/09/22 05:42:08;;;;;;;4.60;4.23;;;4.70;99.90;;;;;;5012368;28;20188;-91
2022/09/22 05:44:36;;;;;;;6.40;5.80;;;4.80;99.90;;;;;;5010277;28;20450;-91
2022/09/22 05:47:04;;;;;;;5.30;4.77;;;4.80;99.90;;;;;;4985857;28;20288;-91
2022/09/22 05:49:30;;;;;;;5.70;5.00;;;4.90;99.90;;;;;;4992992;28;20901;-91
2022/09/22 05:51:56;;;;;;;4.50;4.10;;;4.90;99.90;;;;;;5011515;28;20443;-90
2022/09/22 05:54:24;;;;;;;4.93;4.53;;;4.90;99.90;;;;;;5024612;28;20263;-90
2022/09/22 05:56:50;;;;;;;4.83;4.43;;;4.90;99.90;;;;;;5023915;28;20431;-91
2022/09/22 05:59:16;;;;;;;4.70;4.30;;;5.00;99.90;;;;;;4996946;28;20446;-91
2022/09/22 06:01:42;;;;;;;4.53;4.10;;;5.10;99.90;;;;;;5010935;28;20562;-92
2022/09/22 06:04:08;;;;;;;5.63;4.70;;;5.20;99.90;;;;;;4987072;28;20554;-92
2022/09/22 06:06:33;;;;;;;6.63;4.70;;;5.30;99.90;;;;;;4995356;28;20188;-91
2022/09/22 06:08:59;;;;;;;5.00;4.60;;;5.40;99.90;;;;;;4987006;28;20449;-91
2022/09/22 06:11:24;;;;;;;6.60;5.60;;;5.40;99.90;;;;;;4997403;28;20187;-92
2022/09/22 06:13:50;;;;;;;5.73;5.23;;;5.50;99.90;;;;;;4996986;28;20239;-91
2022/09/22 06:16:16;;;;;;;6.83;6.13;;;5.50;99.90;;;;;;4986151;28;20199;-91
2022/09/22 06:18:46;;;;;;;6.40;5.60;;;5.60;99.90;;;;;;5003291;28;20749;-92
2022/09/22 06:21:13;;;;;;;6.80;6.20;;;5.70;99.90;;;;;;4992556;28;20457;-91
2022/09/22 06:23:42;;;;;;;6.50;5.87;;;5.70;99.90;;;;;;4989139;28;20436;-93
2022/09/22 06:26:25;;;;;;;5.30;4.90;;;5.80;99.90;;;;;;5016884;28;20537;-94
2022/09/22 06:28:50;;;;;;;5.00;4.60;;;6.00;99.90;;;;;;4996334;28;20451;-94
2022/09/22 06:31:18;;;;;;;5.17;4.77;;;6.20;99.90;;;;;;5009770;28;20181;-93
2022/09/22 06:33:47;;;;;;;6.33;5.73;;;6.30;99.90;;;;;;4990565;28;20240;-92
2022/09/22 06:36:19;;;;;;;6.53;5.97;;;6.50;99.90;;;;;;4991791;28;20441;-91
2022/09/22 06:38:53;;;;;;;7.80;6.50;;;6.60;99.90;;;;;;4993050;28;20441;-92
2022/09/22 06:41:21;;;;;;;7.00;6.33;;;6.70;99.90;;;;;;5008192;28;20442;-91
2022/09/22 06:43:54;;;;;;;10.97;6.40;;;6.80;99.90;;;;;;4976614;28;20478;-92
2022/09/22 06:46:37;;;;;;;7.73;6.93;;;7.00;99.90;;;;;;4991249;28;20499;-92
2022/09/22 06:49:06;;;;;;;7.73;6.90;;;7.10;99.90;;;;;;5016832;28;20530;-92
2022/09/22 06:51:39;;;;;;;9.30;7.27;;;7.30;99.90;;;;;;4997470;28;20653;-93
2022/09/22 06:54:08;;;;;;;9.00;7.87;;;7.30;99.90;;;;;;5002308;28;20511;-94
2022/09/22 06:56:38;;;;;;;13.20;11.37;;;7.40;99.90;;;;;;5001127;28;20450;-92
2022/09/22 06:59:09;;;;;;;13.87;12.40;;;7.70;99.90;;;;;;4995050;28;20254;-92
2022/09/22 07:01:35;;;;;;;11.03;9.97;;;7.80;99.90;;;;;;4998962;28;20445;-92
2022/09/22 07:04:03;;;;;;;10.60;9.50;;;7.90;99.90;;;;;;4991375;28;20446;-93
2022/09/22 07:06:29;;;;;;;8.87;7.90;;;8.00;99.90;;;;;;5000543;28;21979;-92
2022/09/22 07:08:55;;;;;;;8.03;7.33;;;8.20;99.90;;;;;;4999258;28;20459;-92
2022/09/22 07:11:22;;;;;;;6.47;5.87;;;8.20;99.90;;;;;;4998771;28;20187;-93
2022/09/22 07:13:52;;;;;;;7.20;6.50;;;8.40;99.90;;;;;;4990878;28;20915;-94
2022/09/22 07:16:23;;;;;;;7.17;6.10;;;8.50;99.90;;;;;;5008855;28;20442;-93
2022/09/22 07:19:00;;;;;;;6.67;6.07;;;8.60;99.90;;;;;;5009914;28;21388;-91
2022/09/22 07:21:31;;;;;;;6.50;6.00;;;8.80;99.90;;;;;;4989317;28;20501;-91
2022/09/22 07:23:57;;;;;;;6.17;5.67;;;8.80;99.90;;;;;;4992884;28;20502;-93
2022/09/22 07:26:32;;;;;;;5.87;5.37;;;9.00;99.90;;;;;;4995308;28;20742;-91
2022/09/22 07:29:03;;;;;;;5.40;5.00;;;9.20;99.90;;;;;;5009314;28;20438;-92
2022/09/22 07:31:33;;;;;;;6.57;5.40;;;9.30;99.90;;;;;;4999248;28;20617;-93
2022/09/22 07:34:00;;;;;;;5.23;4.70;;;9.50;99.90;;;;;;4994240;28;20467;-94
2022/09/22 07:36:32;;;;;;;4.90;4.50;;;9.60;99.90;;;;;;4993907;28;21250;-92
2022/09/22 07:39:04;;;;;;;5.03;4.50;;;9.80;99.90;;;;;;5000756;28;20446;-91
2022/09/22 07:41:31;;;;;;;4.90;4.40;;;9.90;99.90;;;;;;4997858;28;20431;-90
2022/09/22 07:46:43;;;;;;;6.10;4.77;;;10.10;99.90;;;;;;5025960;28;20457;-91
2022/09/22 07:49:08;;;;;;;5.20;4.70;;;10.10;99.90;;;;;;5005899;28;20473;-92
2022/09/22 07:51:34;;;;;;;5.13;4.73;;;10.00;99.90;;;;;;5005558;28;20915;-91
2022/09/22 07:54:09;;;;;;;5.20;4.70;;;10.00;99.90;;;;;;5005724;28;20616;-92
2022/09/22 07:56:39;;;;;;;8.97;5.40;;;10.10;99.90;;;;;;5003672;28;20173;-91
2022/09/22 07:59:08;;;;;;;5.57;4.97;;;10.20;99.90;;;;;;4995090;28;21145;-91
2022/09/22 08:01:35;;;;;;;7.10;4.57;;;10.40;99.90;;;;;;4999253;28;20454;-91
2022/09/22 08:04:01;;;;;;;5.80;5.20;;;10.50;99.90;;;;;;5001150;28;20473;-92
2022/09/22 08:06:27;;;;;;;5.87;5.27;;;10.50;99.90;;;;;;5015879;28;20874;-91
2022/09/22 08:08:59;;;;;;;5.27;4.77;;;10.70;99.90;;;;;;4997805;28;20554;-92
2022/09/22 08:12:01;;;;;;;6.03;4.90;;;10.90;99.90;;;;;;5017047;28;20192;-90
2022/09/22 08:14:27;;;;;;;4.77;4.30;;;11.10;99.90;;;;;;4998844;28;20526;-92
2022/09/22 08:16:56;;;;;;;5.50;4.97;;;11.30;99.90;;;;;;5015573;28;20485;-92
2022/09/22 08:19:22;;;;;;;5.27;4.57;;;11.40;99.90;;;;;;5007121;28;20184;-92
2022/09/22 08:21:56;;;;;;;5.87;4.87;;;11.50;99.90;;;;;;5004010;28;21468;-93
2022/09/22 08:24:24;;;;;;;4.83;4.33;;;11.60;99.90;;;;;;4999935;28;20449;-92
2022/09/22 08:26:51;;;;;;;6.73;4.17;;;11.60;99.90;;;;;;5016598;28;20431;-94
2022/09/22 08:29:30;;;;;;;5.73;4.23;;;11.70;99.90;;;;;;4997079;28;20280;-92
2022/09/22 08:32:27;;;;;;;4.70;4.30;;;11.90;99.90;;;;;;5013028;28;20525;-92
2022/09/22 08:35:05;;;;;;;5.13;4.63;;;12.10;99.90;;;;;;5002381;28;20466;-92
2022/09/22 08:37:43;;;;;;;5.00;4.60;;;12.20;99.90;;;;;;4999248;28;21036;-91
2022/09/22 08:40:19;;;;;;;5.10;4.23;;;12.30;99.90;;;;;;5018241;28;20983;-90
2022/09/22 08:42:46;;;;;;;4.20;3.83;;;12.50;99.90;;;;;;5004266;28;20632;-92
2022/09/22 08:45:43;;;;;;;4.80;4.40;;;12.70;99.90;;;;;;5014869;28;20577;-91
2022/09/22 08:54:15;;;;;;;6.80;3.90;;;13.30;99.90;;;;;;5009957;28;20712;-91
2022/09/22 08:57:26;;;;;;;4.20;3.90;;;13.40;99.90;;;;;;4994442;28;20447;-91
2022/09/22 09:00:16;;;;;;;3.77;3.47;;;13.70;99.90;;;;;;4981699;28;20431;-91
2022/09/22 09:02:54;;;;;;;4.20;3.90;;;13.80;99.90;;;;;;4969712;28;20993;-90
2022/09/22 09:06:07;;;;;;;4.87;4.20;;;14.00;99.90;;;;;;4990571;28;20455;-92
2022/09/22 09:09:09;;;;;;;4.50;4.10;;;14.30;99.90;;;;;;5007300;28;20451;-90
2022/09/22 09:12:05;;;;;;;4.60;4.20;;;14.40;99.90;;;;;;5012162;28;20435;-92
2022/09/22 09:15:23;;;;;;;4.57;4.17;;;14.60;99.90;;;;;;5010108;28;20478;-91
2022/09/22 09:18:02;;;;;;;4.10;3.80;;;14.60;99.90;;;;;;4991268;28;20851;-90
2022/09/22 09:20:51;;;;;;;6.77;4.80;;;14.80;99.90;;;;;;5012940;28;20805;-91
2022/09/22 09:23:25;;;;;;;5.37;4.47;;;14.90;99.90;;;;;;4995957;28;20455;-90
2022/09/22 09:25:54;;;;;;;3.53;3.30;;;15.10;99.90;;;;;;4994252;28;20839;-90
2022/09/22 09:28:34;;;;;;;4.00;3.10;;;15.40;99.90;;;;;;5004969;28;20439;-90
2022/09/22 09:31:16;;;;;;;3.40;3.10;;;15.30;99.90;;;;;;5009898;28;20454;-90
2022/09/22 09:33:55;;;;;;;3.40;3.10;;;15.30;99.90;;;;;;4996943;28;20464;-90
2022/09/22 09:36:30;;;;;;;3.30;3.00;;;15.40;99.90;;;;;;5015354;28;20461;-92
2022/09/22 09:39:09;;;;;;;4.10;3.70;;;15.80;99.90;;;;;;4989114;28;20430;-92
2022/09/22 09:41:40;;;;;;;2.60;2.40;;;15.90;99.90;;;;;;4985627;28;20447;-91
2022/09/22 09:45:01;;;;;;;2.53;2.33;;;16.00;99.90;;;;;;5003981;28;20577;-91
2022/09/22 09:48:41;;;;;;;3.03;2.73;;;16.10;99.90;;;;;;4993924;28;20711;-92
2022/09/22 09:51:14;;;;;;;2.70;2.50;;;16.20;99.40;;;;;;5008974;28;20828;-91
2022/09/22 09:53:48;;;;;;;3.10;2.90;;;16.20;99.20;;;;;;4995896;28;20812;-91
2022/09/22 09:56:43;;;;;;;;;;;;;;;;;;;;;
2022/09/22 10:01:58;;;;;;;2.30;2.10;;;16.70;99.00;;;;;;5023143;28;20525;-90
2022/09/22 10:05:07;;;;;;;2.20;2.10;;;16.90;99.50;;;;;;5035814;23;20496;-92
2022/09/22 10:08:09;;;;;;;2.17;2.07;;;16.90;97.40;;;;;;4931961;28;20516;-95
2022/09/22 10:10:43;;;;;;;2.40;2.07;;;17.10;97.30;;;;;;4934089;28;22463;-95
2022/09/22 10:13:09;;;;;;;2.60;2.40;;;17.30;97.00;;;;;;4932128;28;20439;-93
2022/09/22 10:15:45;;;;;;;2.20;2.00;;;17.40;97.20;;;;;;4944837;28;20861;-94
2022/09/22 10:18:26;;;;;;;3.30;2.10;;;17.40;96.20;;;;;;4971464;28;20174;-94
2022/09/22 10:25:01;;;;;;;;;;;;;;;;;;;;;
2022/09/22 10:27:29;;;;;;;2.17;1.73;;;17.30;96.40;;;;;;4970956;28;20451;-92
2022/09/22 10:30:20;;;;;;;1.73;1.63;;;17.30;96.00;;;;;;4970713;28;20646;-93
2022/09/22 10:33:18;;;;;;;1.97;1.50;;;17.50;95.20;;;;;;4956911;28;20445;-95
2022/09/22 10:36:07;;;;;;;1.40;1.30;;;18.00;97.30;;;;;;4961633;28;20476;-95
2022/09/22 10:38:55;;;;;;;1.03;0.93;;;18.20;94.60;;;;;;4960477;28;20527;-93
2022/09/22 10:42:05;;;;;;;1.33;1.10;;;18.20;92.40;;;;;;4971682;28;20496;-95
2022/09/22 10:44:43;;;;;;;;;;;;;;;;;;;;;
2022/09/22 10:47:39;;;;;;;0.90;0.90;;;18.00;91.20;;;;;;4975707;28;20439;-94
2022/09/22 10:51:00;;;;;;;0.90;0.90;;;18.00;91.10;;;;;;4962526;28;21533;-94
2022/09/22 10:53:52;;;;;;;3.20;0.83;;;18.20;91.50;;;;;;4904543;29;20448;-96
2022/09/22 10:56:39;;;;;;;0.90;0.90;;;18.70;89.00;;;;;;4972109;28;20456;-96
2022/09/22 11:03:15;;;;;;;0.83;0.83;;;18.80;89.20;;;;;;4977081;28;20437;-95
2022/09/22 11:12:22;;;;;;;1.50;0.97;;;18.90;88.50;;;;;;4972916;28;20985;-96
2022/09/22 11:15:12;;;;;;;2.70;1.10;;;18.40;85.70;;;;;;4961188;28;20483;-94
2022/09/22 11:17:59;;;;;;;1.13;0.90;;;18.80;89.70;;;;;;4957709;28;20441;-94
2022/09/22 11:20:35;;;;;;;2.10;1.10;;;18.80;88.60;;;;;;4959266;28;20436;-94
2022/09/22 11:23:26;;;;;;;1.37;1.27;;;19.10;81.60;;;;;;4976554;28;20464;-94
2022/09/22 11:26:04;;;;;;;1.10;1.10;;;19.10;84.70;;;;;;4957799;28;20984;-95
2022/09/22 11:29:19;;;;;;;3.53;1.20;;;19.00;89.40;;;;;;4954145;28;20448;-93
2022/09/22 11:32:16;;;;;;;2.17;1.50;;;19.30;86.60;;;;;;4956959;28;20491;-96
2022/09/22 11:34:59;;;;;;;1.30;1.17;;;19.50;89.50;;;;;;4977439;28;20486;-96
2022/09/22 11:37:46;;;;;;;1.30;1.20;;;19.20;88.80;;;;;;4947899;28;20484;-95
2022/09/22 11:40:41;;;;;;;1.20;1.10;;;18.90;83.80;;;;;;4956474;28;20444;-95
2022/09/22 11:44:03;;;;;;;2.40;1.00;;;19.10;87.90;;;;;;4957353;28;20787;-94
2022/09/22 11:47:07;;;;;;;0.90;0.90;;;18.90;83.60;;;;;;4962344;28;20448;-94
2022/09/22 11:49:39;;;;;;;1.30;1.20;;;19.10;85.90;;;;;;4979559;28;20483;-94
2022/09/22 11:52:34;;;;;;;1.20;1.10;;;19.20;86.80;;;;;;4963092;28;20456;-95
2022/09/22 11:55:14;;;;;;;1.00;1.00;;;19.40;83.10;;;;;;4969969;28;20460;-95
2022/09/22 11:57:44;;;;;;;1.20;1.20;;;19.60;89.50;;;;;;4954889;28;20480;-95
2022/09/22 12:00:18;;;;;;;1.27;0.97;;;19.60;82.50;;;;;;4978437;28;20828;-94
2022/09/22 12:03:03;;;;;;;1.13;1.13;;;19.60;84.10;;;;;;4970709;28;20436;-94
2022/09/22 12:05:39;;;;;;;1.00;1.00;;;19.10;81.30;;;;;;4975030;28;20452;-93
2022/09/22 12:08:06;;;;;;;3.10;1.90;;;19.10;86.50;;;;;;4976587;28;20467;-92
2022/09/22 12:10:38;;;;;;;1.13;1.03;;;19.30;83.70;;;;;;4957926;28;20450;-93
2022/09/22 12:13:10;;;;;;;0.87;0.87;;;19.40;82.20;;;;;;4968829;28;20513;-94
2022/09/22 12:16:19;;;;;;;1.37;1.27;;;19.40;84.70;;;;;;4949623;28;20485;-91
2022/09/22 12:19:12;;;;;;;1.20;1.20;;;19.40;84.50;;;;;;4948645;28;20460;-92
2022/09/22 12:22:04;;;;;;;1.40;1.30;;;19.70;84.80;;;;;;4952839;28;20448;-93
2022/09/22 12:24:31;;;;;;;2.33;1.10;;;19.80;81.50;;;;;;4967623;28;20452;-93
2022/09/22 12:26:57;;;;;;;0.90;0.90;;;20.10;81.10;;;;;;4954701;28;20552;-94
2022/09/22 12:29:29;;;;;;;1.23;1.13;;;20.00;77.90;;;;;;4959027;28;20448;-96
2022/09/22 12:31:57;;;;;;;1.00;1.00;;;20.10;79.10;;;;;;4966883;28;20204;-96
2022/09/22 12:34:42;;;;;;;1.50;1.30;;;20.00;80.40;;;;;;4980672;28;20468;-96
2022/09/22 12:37:24;;;;;;;2.70;0.97;;;19.90;82.80;;;;;;4963753;28;20521;-96
2022/09/22 12:39:50;;;;;;;1.03;1.03;;;19.80;78.60;;;;;;4995950;28;20448;-96
2022/09/22 12:42:36;;;;;;;1.10;1.10;;;19.90;81.70;;;;;;4986025;28;20448;-96
2022/09/22 12:45:28;;;;;;;1.20;1.10;;;20.10;79.30;;;;;;4992619;28;20432;-96
2022/09/22 12:48:07;;;;;;;1.30;1.20;;;20.40;73.30;;;;;;4990758;28;20468;-96
2022/09/22 12:50:37;;;;;;;1.47;1.10;;;20.30;79.70;;;;;;4978083;28;20473;-96
2022/09/22 12:53:23;;;;;;;1.80;1.00;;;20.20;80.10;;;;;;4978606;28;20483;-96
2022/09/22 12:55:54;;;;;;;1.23;1.13;;;20.00;77.10;;;;;;4964123;28;20527;-95
2022/09/22 12:58:19;;;;;;;1.50;1.40;;;20.10;78.30;;;;;;4977896;28;20443;-96
2022/09/22 13:00:46;;;;;;;1.43;1.10;;;20.30;78.70;;;;;;4982328;28;20446;-93
2022/09/22 13:03:30;;;;;;;1.17;1.07;;;20.20;73.10;;;;;;4984544;28;20192;-94
2022/09/22 13:06:03;;;;;;;1.33;1.33;;;20.20;75.20;;;;;;4979223;28;20468;-94
2022/09/22 13:08:32;;;;;;;1.47;1.00;;;20.00;80.60;;;;;;4980099;28;20473;-94
2022/09/22 13:11:08;;;;;;;1.50;1.40;;;19.70;77.10;;;;;;4962190;28;20429;-93
2022/09/22 13:13:38;;;;;;;1.90;1.30;;;19.70;79.10;;;;;;4981796;28;20445;-93
2022/09/22 13:16:23;;;;;;;1.50;1.13;;;19.60;79.70;;;;;;4963865;28;20449;-95
2022/09/22 13:18:59;;;;;;;1.13;1.13;;;19.80;80.60;;;;;;4976251;28;20633;-94
2022/09/22 13:21:28;;;;;;;1.33;1.23;;;20.00;75.10;;;;;;4978773;28;20517;-94
2022/09/22 13:23:56;;;;;;;0.97;0.87;;;20.20;73.50;;;;;;4980319;28;21335;-95
2022/09/22 13:26:35;;;;;;;1.70;1.60;;;19.90;70.30;;;;;;4962593;28;20508;-94
2022/09/22 13:29:06;;;;;;;1.30;1.20;;;19.90;79.60;;;;;;4959542;28;20455;-94
2022/09/22 13:31:47;;;;;;;1.10;1.10;;;20.00;80.30;;;;;;4976704;28;20452;-95
2022/09/22 13:34:36;;;;;;;1.50;0.90;;;20.10;77.00;;;;;;4974115;28;20464;-95
2022/09/22 13:37:25;;;;;;;1.07;1.07;;;20.20;77.80;;;;;;4950611;28;20524;-96
2022/09/22 13:39:56;;;;;;;1.30;1.20;;;20.10;75.50;;;;;;4959368;28;21043;-95
2022/09/22 13:42:30;;;;;;;1.30;1.20;;;20.10;73.40;;;;;;4966751;28;20437;-96
2022/09/22 13:45:01;;;;;;;1.50;1.40;;;20.40;78.20;;;;;;4963212;28;20437;-94
2022/09/22 13:47:27;;;;;;;2.20;1.43;;;20.60;78.20;;;;;;4973428;28;20445;-94
2022/09/22 13:49:55;;;;;;;1.30;1.20;;;20.50;74.60;;;;;;4976166;28;20444;-94
2022/09/22 13:52:39;;;;;;;2.07;1.20;;;20.60;74.40;;;;;;4958971;28;20443;-95
2022/09/22 13:55:25;;;;;;;2.10;1.20;;;20.50;79.00;;;;;;4962741;28;20996;-94
2022/09/22 13:57:54;;;;;;;1.00;1.00;;;20.70;77.60;;;;;;4974512;28;21038;-95
2022/09/22 14:00:49;;;;;;;1.83;1.27;;;20.80;78.50;;;;;;4961347;28;20437;-95
2022/09/22 14:03:26;;;;;;;1.63;1.10;;;20.70;68.30;;;;;;4962611;28;20437;-94
2022/09/22 14:05:58;;;;;;;1.63;1.53;;;20.80;74.30;;;;;;4956005;28;20449;-94
2022/09/22 14:09:03;;;;;;;1.50;1.30;;;20.60;73.80;;;;;;4960547;28;20460;-93
2022/09/22 14:11:31;;;;;;;1.30;1.20;;;20.90;69.40;;;;;;4967756;28;20452;-94
2022/09/22 14:14:19;;;;;;;1.37;1.27;;;21.20;74.70;;;;;;4973045;28;20484;-94
2022/09/22 14:17:24;;;;;;;1.43;1.10;;;21.80;70.70;;;;;;4981914;28;20437;-95
2022/09/22 14:19:59;;;;;;;1.47;1.30;;;21.80;75.50;;;;;;4968187;28;20554;-95
2022/09/22 14:22:27;;;;;;;1.97;1.30;;;21.60;75.20;;;;;;4977661;28;20429;-96